METAR Data
IDs: Format: Raw Decoded Include TAF

Data at: 1723 UTC 16 Oct 2021

KASL 161715Z AUTO 36008G14KT 10SM CLR 21/02 A3035 RMK AO1 T02110016
KASL 161655Z AUTO 07006KT 10SM CLR 21/02 A3036 RMK AO1 T02110017
KASL 161635Z AUTO 04004KT 10SM CLR 20/03 A3036 RMK AO1 T02030030
KASL 161615Z AUTO 03006KT 10SM CLR 19/05 A3036 RMK AO1 T01940045
KASL 161555Z AUTO 02006KT 10SM CLR 18/06 A3036 RMK AO1 T01830057
KASL 161535Z AUTO 01008KT 10SM CLR 18/07 A3036 RMK AO1 T01820066
KASL 161515Z AUTO 02006KT 10SM CLR 18/08 A3036 RMK AO1 T01780078
KASL 161455Z AUTO 02004KT 10SM CLR 16/07 A3036 RMK AO1 T01550073
KASL 161435Z AUTO 36007KT 10SM CLR 15/07 A3036 RMK AO1 T01480071
KASL 161415Z AUTO 01005KT 10SM CLR 14/07 A3035 RMK AO1 T01350071
KASL 161355Z AUTO 35005KT 10SM CLR 13/08 A3034 RMK AO1 T01300075
KASL 161335Z AUTO 35005KT 10SM CLR 13/08 A3034 RMK AO1 T01270080
KASL 161315Z AUTO 35005KT 10SM CLR 12/08 A3034 RMK AO1 T01150079
KASL 161255Z AUTO 36005KT 10SM CLR 10/08 A3033 RMK AO1 T01000075
KASL 161235Z AUTO 36005KT 10SM CLR 10/08 A3032 RMK AO1 T01000078
KASL 161215Z AUTO 35005KT 10SM CLR 10/08 A3031 RMK AO1 T01000079
KASL 161155Z AUTO 34004KT 10SM CLR 10/08 A3031 RMK AO1 T01000078 10141 20100
KASL 161135Z AUTO 36004KT 10SM CLR 10/08 A3030 RMK AO1 T01000075
KASL 161115Z AUTO 36005KT 10SM CLR 10/07 A3029 RMK AO1 T01000070
KASL 161055Z AUTO 36006KT 10SM CLR 11/08 A3028 RMK AO1 T01120076
KASL 161035Z AUTO 36006KT 10SM CLR 11/07 A3028 RMK AO1 T01110074
KASL 161015Z AUTO 36006KT 10SM CLR 12/08 A3027 RMK AO1 T01150076
KASL 160955Z AUTO 36007KT 10SM CLR 11/08 A3027 RMK AO1 T01130078
KASL 160935Z AUTO 01006KT 10SM CLR 11/08 A3027 RMK AO1 T01110078
KASL 160915Z AUTO 36005KT 10SM CLR 11/08 A3027 RMK AO1 T01080075
KASL 160855Z AUTO 36004KT 10SM CLR 10/08 A3026 RMK AO1 T01010075
KASL 160835Z AUTO 00000KT 10SM CLR 11/08 A3026 RMK AO1 T01130081
KASL 160815Z AUTO 00000KT 10SM CLR 12/08 A3026 RMK AO1 T01150081
KASL 160755Z AUTO 36004KT 10SM CLR 12/08 A3026 RMK AO1 T01150079
KASL 160735Z AUTO 35006KT 10SM CLR 13/08 A3025 RMK AO1 T01270084
KASL 160715Z AUTO 35006KT 10SM CLR 13/09 A3025 RMK AO1 T01260086
KASL 160655Z AUTO 35005KT 10SM CLR 13/09 A3024 RMK AO1 T01330086
KASL 160635Z AUTO 36005KT 10SM CLR 14/09 A3024 RMK AO1 T01350085
KASL 160615Z AUTO 35004KT 10SM CLR 14/09 A3024 RMK AO1 T01380090
KASL 160555Z AUTO 35007KT 10SM CLR 14/09 A3023 RMK AO1 T01410091 10225 20141 402970141
KASL 160535Z AUTO 35006KT 10SM CLR 14/09 A3023 RMK AO1 T01430090
KASL 160515Z AUTO 35006KT 10SM CLR 15/09 A3022 RMK AO1 T01470089
KASL 160455Z AUTO 36007KT 10SM CLR 15/09 A3021 RMK AO1 T01540091
KASL 160435Z AUTO 36007KT 10SM CLR 16/09 A3019 RMK AO1 T01590090
KASL 160415Z AUTO 36010G15KT 10SM CLR 16/09 A3018 RMK AO1 T01640088
KASL 160355Z AUTO 36011G17KT 10SM CLR 18/10 A3017 RMK AO1 T01750098
KASL 160335Z AUTO 35012G19KT 10SM CLR 18/11 A3017 RMK AO1 T01820112
KASL 160315Z AUTO 36009G16KT 10SM CLR 17/11 A3016 RMK AO1 T01740109
KASL 160255Z AUTO 35009G16KT 10SM CLR 18/12 A3015 RMK AO1 T01830117
KASL 160235Z AUTO 35010G18KT 10SM CLR 18/12 A3014 RMK AO1 T01830117
KASL 160215Z AUTO 35011G16KT 10SM CLR 18/13 A3013 RMK AO1 T01830125
KASL 160155Z AUTO 35008KT 10SM CLR 18/13 A3012 RMK AO1 T01830134
KASL 160135Z AUTO 34008KT 10SM CLR 19/14 A3011 RMK AO1 T01870135
KASL 160115Z AUTO 35008KT 10SM CLR 20/14 A3009 RMK AO1 T01960140
KASL 160055Z AUTO 35007G16KT 10SM CLR 21/14 A3008 RMK AO1 T02050141
KASL 160035Z AUTO 35014G24KT 10SM CLR 21/15 A3007 RMK AO1 T02110145
KASL 160015Z AUTO 35013G23KT 10SM SCT031 BKN037 21/16 A3005 RMK AO1 T02140155
KASL 152355Z AUTO 34014G25KT 10SM OVC033 23/17 A3003 RMK AO1 T02250165 10297 20225
KASL 152335Z AUTO 33014G17KT 10SM SCT029 BKN040 24/18 A3001 RMK AO1 T02400180
KASL 152315Z AUTO 32015G22KT 10SM SCT040 24/18 A3000 RMK AO1 T02400176
KASL 152255Z AUTO 32015G22KT 10SM SCT060 25/18 A2998 RMK AO1 T02460183
KASL 152235Z AUTO 32012G18KT 10SM SCT033 SCT039 25/19 A2997 RMK AO1 T02520190
KASL 152215Z AUTO 33015G23KT 10SM SCT037 OVC060 27/20 A2996 RMK AO1 T02690196
KASL 152155Z AUTO 32007KT 10SM SCT040 BKN060 28/19 A2994 RMK AO1 T02790194
KASL 152135Z AUTO 31010G17KT 10SM SCT040 SCT070 29/19 A2994 RMK AO1 T02860193
KASL 152115Z AUTO 28010G16KT 10SM CLR 29/20 A2994 RMK AO1 T02880201
KASL 152055Z AUTO 31012G17KT 10SM SCT030 SCT039 SCT046 28/22 A2994 RMK AO1 T02830215
KASL 152035Z AUTO 30015G20KT 10SM SCT030 BKN042 BKN060 29/22 A2994 RMK AO1 T02850220
KASL 152015Z AUTO 28009G16KT 10SM SCT035 BKN044 BKN055 29/22 A2993 RMK AO1 T02930219
KASL 151955Z AUTO 24011G14KT 10SM SCT035 SCT060 BKN065 30/21 A2992 RMK AO1 T02950208
KASL 151935Z AUTO 26010G14KT 230V300 10SM BKN035 BKN060 BKN070 30/21 A2993 RMK AO1 T02950214
KASL 151915Z AUTO 28009G16KT 10SM SCT037 BKN060 BKN070 30/21 A2993 RMK AO1 T02950210
KASL 151855Z AUTO 24007KT 10SM SCT035 BKN050 BKN070 30/21 A2993 RMK AO1 T02950212
KASL 151835Z AUTO 23008KT 10SM SCT035 BKN042 BKN050 30/21 A2993 RMK AO1 T02950212
KASL 151815Z AUTO 23008KT 10SM BKN033 BKN042 OVC048 30/21 A2994 RMK AO1 T02950213
KASL 151755Z AUTO 25008KT 10SM BKN033 OVC040 30/22 A2994 RMK AO1 T02950218 10295 20215
KASL 151735Z AUTO 22012G16KT 10SM BKN032 30/22 A2995 RMK AO1 T02950218
KASL 151715Z AUTO 22007KT 200V260 10SM SCT025 29/23 A2995 RMK AO1 T02890225
KASL 151655Z AUTO 23008KT 10SM SCT023 BKN029 BKN036 27/22 A2996 RMK AO1 T02720219
KASL 151635Z AUTO 27005KT 10SM BKN021 OVC035 27/22 A2996 RMK AO1 T02660220
KASL 151615Z AUTO 25011KT 10SM BKN017 BKN025 OVC033 27/22 A2996 RMK AO1 T02660221
KASL 151555Z AUTO 22008KT 10SM SCT015 BKN021 BKN031 25/22 A2996 RMK AO1 T02530223
KASL 151535Z AUTO 22007KT 10SM BKN013 BKN021 BKN037 24/22 A2996 RMK AO1 T02430221
KASL 151515Z AUTO 22008KT 10SM SCT008 BKN013 OVC037 24/22 A2996 RMK AO1 T02410222
KASL 151455Z AUTO 23006KT 10SM OVC009 24/22 A2996 RMK AO1 T02400223
KASL 151435Z AUTO 22006KT 10SM BKN006 OVC012 23/22 A2996 RMK AO1 T02300217
KASL 151415Z AUTO 21007KT 7SM OVC004 24/23 A2994 RMK AO1 T02360225
KASL 151355Z AUTO 18006KT 5SM OVC004 23/22 A2993 RMK AO1 T02260217
KASL 151335Z AUTO 18006KT 5SM OVC004 23/22 A2993 RMK AO1 T02250217
KASL 151315Z AUTO 18004KT 4SM BKN004 OVC024 22/21 A2993 RMK AO1 T02200211
KASL 151255Z AUTO 17004KT 4SM OVC004 22/21 A2992 RMK AO1 T02170208
KASL 151235Z AUTO 19003KT 4SM OVC004 22/21 A2992 RMK AO1 T02220214
KASL 151215Z AUTO 18005KT 5SM OVC004 22/22 A2991 RMK AO1 T02240216
KASL 151155Z AUTO 19004KT 5SM BKN004 OVC008 22/21 A2991 RMK AO1 60001 70011 T02190210 10225 20211
KASL 151135Z AUTO 17003KT 5SM BKN004 OVC009 21/21 A2991 RMK AO1 T02130205
KASL 151115Z AUTO 18003KT 5SM OVC002 21/21 A2990 RMK AO1 T02120205
KASL 151055Z AUTO 19005KT 5SM OVC002 22/21 A2990 RMK AO1 T02200212
KASL 151035Z AUTO 19006KT 4SM OVC002 23/22 A2990 RMK AO1 T02250217
KASL 151015Z AUTO 19005KT 5SM OVC002 23/22 A2990 RMK AO1 T02250217
KASL 150955Z AUTO 18004KT 5SM OVC002 22/21 A2989 RMK AO1 T02170210
KASL 150935Z AUTO 18003KT 5SM OVC002 21/20 A2989 RMK AO1 T02110203
KASL 150915Z AUTO 00000KT 3SM BKN002 21/20 A2989 RMK AO1 T02110203
KASL 150855Z AUTO 16003KT 2 1/2SM SCT002 21/20 A2989 RMK AO1 60001 T02110203
KASL 150835Z AUTO 00000KT 4SM BKN002 21/20 A2989 RMK AO1 T02110203
KASL 150815Z AUTO 00000KT 3SM SCT002 21/20 A2990 RMK AO1 T02110203
KASL 150755Z AUTO 17003KT 4SM SCT002 21/20 A2990 RMK AO1 P0001 T02110202
KASL 150735Z AUTO 19003KT 5SM CLR 21/20 A2991 RMK AO1 P0001 T02110202
KASL 150715Z AUTO 19003KT 7SM CLR 22/21 A2991 RMK AO1 T02150206
KASL 150655Z AUTO 20004KT 10SM SCT065 22/21 A2991 RMK AO1 T02150206
KASL 150635Z AUTO 20006KT 7SM SCT065 22/21 A2991 RMK AO1 T02160207
KASL 150615Z AUTO 19005KT 7SM SCT004 BKN065 22/21 A2991 RMK AO1 T02170209
KASL 150555Z AUTO 20004KT 7SM BKN004 BKN060 23/22 A2991 RMK AO1 T02250216 10225 20211 402610211
KASL 150535Z AUTO 00000KT 7SM SCT075 22/22 A2991 RMK AO1 T02240217